createdAt,value
2023-03-16T00:00:38.766Z,100
2023-03-16T00:15:37.383Z,100
2023-03-16T00:57:22.483Z,100
2023-03-16T01:00:39.159Z,100
2023-03-16T01:15:42.304Z,100
2023-03-16T01:45:53.308Z,100
2023-03-16T02:00:47.310Z,100
2023-03-16T02:01:39.965Z,100
2023-03-16T02:27:38.507Z,100
2023-03-16T02:30:46.597Z,100
2023-03-16T02:45:53.763Z,100
2023-03-16T03:27:43.170Z,100
2023-03-16T03:30:46.900Z,100
2023-03-16T03:45:55.510Z,100
2023-03-16T04:00:49.558Z,100
2023-03-16T04:15:47.989Z,100
2023-03-16T04:30:49.675Z,100
2023-03-16T04:45:46.878Z,100
2023-03-16T05:00:59.252Z,100
2023-03-16T05:15:50.630Z,100
2023-03-16T05:36:00.730Z,100
2023-03-16T05:51:08.770Z,100
2023-03-16T06:21:02.894Z,100
2023-03-16T06:36:13.539Z,100
2023-03-16T06:51:06.469Z,100
2023-03-16T09:21:51.027Z,100
2023-03-16T10:03:35.341Z,100
2023-03-16T10:06:16.452Z,100
2023-03-16T10:21:10.244Z,100
2023-03-16T10:36:18.574Z,100
2023-03-16T10:51:59.621Z,74.3
2023-03-16T11:06:15.354Z,70.7
2023-03-16T11:21:12.355Z,42.3
2023-03-16T11:36:13.420Z,43.5
2023-03-16T11:51:13.091Z,44
2023-03-16T12:06:24.292Z,45.3
2023-03-16T12:21:14.507Z,42.3
2023-03-16T12:36:15.363Z,43
2023-03-16T12:51:15.016Z,42.2
2023-03-16T13:06:17.223Z,36.5
2023-03-16T13:21:16.997Z,35
2023-03-16T13:36:16.610Z,36.1
2023-03-16T13:51:17.382Z,35.6
2023-03-16T14:06:17.598Z,31.9
2023-03-16T14:21:20.905Z,31.9
2023-03-16T14:36:18.996Z,35.3
2023-03-16T14:51:19.216Z,33.4
2023-03-16T15:06:19.699Z,36.9
2023-03-16T15:21:20.743Z,35.6
2023-03-16T15:36:21.313Z,37.8
2023-03-16T15:51:36.058Z,37.8
2023-03-16T16:06:22.519Z,41.9
2023-03-16T16:21:31.185Z,41.9
2023-03-16T16:36:22.290Z,52.7
2023-03-16T16:51:26.015Z,52.7
2023-03-16T17:06:27.325Z,55.6
2023-03-16T17:21:23.947Z,77.3
2023-03-16T17:36:27.929Z,77.3
2023-03-16T17:51:31.475Z,100
2023-03-16T18:06:31.968Z,100
2023-03-16T18:21:34.241Z,100
2023-03-16T18:52:08.343Z,100
2023-03-16T19:06:56.219Z,100
2023-03-16T20:21:39.853Z,100
